Cruzeiro do Sul, Brazil
Current Conditions -  °F | °C
As of 3:00 PM on Thursday 30 Oct 2014 (Local Time) from SBMG Reporting Station
Rain Showers Rain Showers  
Wind Chill: 84°   Ceiling: Unl
Heat Index: 86°   Visibility: 6mi
Dew Point: 64°   Wind: 18mph
Humidity: 51%   Direction: 280°W
Pressure: 29.77"   Gusts: NA
Location:  22.96°S, 52.16°W
Report Text: SBMG 301700Z 28016KT 9999 VCSH SCT040 FEW050TCU 29/18 Q1008
Loading
Personal Weather Stations






























Interactive Weather Map
Tropical Storm Tracking
New forecast layout! Learn more

10-Day Weather Forecast

Advertisements
Track Severe Weather on mobile